Time;durP1;ratioP1;P1;durP2;ratioP2;P2;SDS_P1;SDS_P2;PMS_P1;PMS_P2;Temp;Humidity;BMP_temperature;BMP_pressure;BME280_temperature;BME280_humidity;BME280_pressure;Samples;Min_cycle;Max_cycle;Signal;HPM_P1;HPM_P2
2022/06/27 00:02:02;;;;;;;3.65;1.83;;;;;;;25.18;55.95;99457.97;4207263;28;20309;-69
2022/06/27 00:04:04;;;;;;;2.95;1.75;;;;;;;25.94;53.96;99467.59;4207163;28;20642;-68
2022/06/27 00:06:06;;;;;;;2.22;1.45;;;;;;;23.55;59.82;99487.88;4206976;28;20239;-68
2022/06/27 00:08:07;;;;;;;3.25;1.60;;;;;;;23.04;61.74;99496.09;4208206;28;20795;-68
2022/06/27 00:10:10;;;;;;;2.42;1.60;;;;;;;23.40;61.04;99510.22;4209080;28;20295;-68
2022/06/27 00:12:12;;;;;;;3.50;1.60;;;;;;;24.79;58.00;99506.38;4210202;28;20721;-68
2022/06/27 00:14:13;;;;;;;1.75;1.52;;;;;;;23.83;60.23;99524.09;4211775;28;20283;-69
2022/06/27 00:16:15;;;;;;;3.63;1.90;;;;;;;24.06;59.96;99529.25;4209306;28;20275;-69
2022/06/27 00:18:37;;;;;;;4.40;1.73;;;;;;;23.48;60.98;99558.59;4210838;28;20218;-69
2022/06/27 00:20:39;;;;;;;3.67;1.87;;;;;;;23.23;61.99;99547.38;4210067;28;20238;-69
2022/06/27 00:22:41;;;;;;;3.55;1.90;;;;;;;23.98;60.48;99528.88;4200854;28;20811;-69
2022/06/27 00:24:42;;;;;;;5.35;2.05;;;;;;;22.94;62.66;99529.31;4209928;28;20328;-69
2022/06/27 00:26:44;;;;;;;3.00;1.80;;;;;;;22.19;65.04;99497.88;4209610;28;20234;-69
2022/06/27 00:28:46;;;;;;;3.23;2.00;;;;;;;22.79;63.66;99436.88;4210420;28;20657;-68
2022/06/27 00:30:48;;;;;;;3.33;2.00;;;;;;;24.94;58.14;99367.00;4211094;28;20280;-69
2022/06/27 00:32:49;;;;;;;3.10;2.40;;;;;;;24.53;57.84;99313.19;4210632;28;20710;-69
2022/06/27 00:34:51;;;;;;;4.37;2.50;;;;;;;25.54;55.83;99274.97;4209343;28;20662;-69
2022/06/27 00:36:53;;;;;;;3.13;1.97;;;;;;;24.38;57.99;99240.53;4210837;28;20218;-69
2022/06/27 00:38:55;;;;;;;4.47;2.00;;;;;;;25.08;56.62;99221.25;4210978;28;20294;-69
2022/06/27 00:40:57;;;;;;;2.20;2.00;;;;;;;25.21;56.18;99218.03;4209883;28;20227;-69
2022/06/27 00:42:59;;;;;;;5.67;1.90;;;;;;;25.48;55.64;99219.72;4210713;28;20280;-69
2022/06/27 00:45:01;;;;;;;2.47;1.73;;;;;;;25.56;54.84;99237.41;4209656;28;20299;-69
2022/06/27 00:47:04;;;;;;;3.80;1.60;;;;;;;26.13;53.85;99240.94;4208887;28;20227;-69
2022/06/27 00:49:06;;;;;;;2.30;1.70;;;;;;;25.78;54.29;99254.31;4210261;28;20242;-69
2022/06/27 00:51:09;;;;;;;2.53;1.87;;;;;;;25.21;55.49;99282.50;4210280;28;20288;-68
2022/06/27 00:53:11;;;;;;;1.77;1.50;;;;;;;25.64;54.34;99313.09;4209591;28;20620;-69
2022/06/27 00:55:13;;;;;;;1.92;1.50;;;;;;;26.01;54.00;99343.94;4210015;28;20620;-68
2022/06/27 00:57:16;;;;;;;2.78;1.60;;;;;;;26.20;53.54;99346.94;4210911;28;20231;-69
2022/06/27 00:59:18;;;;;;;4.67;1.60;;;;;;;25.73;53.81;99360.50;4209750;28;20238;-69
2022/06/27 01:01:20;;;;;;;1.90;1.70;;;;;;;25.03;55.33;99371.66;4210402;28;20644;-68
2022/06/27 01:03:22;;;;;;;2.37;1.97;;;;;;;26.21;53.24;99367.66;4212453;28;20658;-69
2022/06/27 01:05:24;;;;;;;1.83;1.70;;;;;;;26.72;51.93;99378.53;4211916;28;20242;-69
2022/06/27 01:07:25;;;;;;;3.23;1.80;;;;;;;26.60;52.01;99370.63;4210609;28;20238;-69
2022/06/27 01:09:27;;;;;;;1.87;1.70;;;;;;;26.53;53.03;99368.19;4212528;28;20292;-68
2022/06/27 01:11:30;;;;;;;3.40;1.90;;;;;;;27.10;51.29;99372.75;4209680;28;20260;-69
2022/06/27 01:13:33;;;;;;;3.20;2.00;;;;;;;27.40;51.17;99380.00;4209138;28;20230;-69
2022/06/27 01:15:35;;;;;;;2.53;2.10;;;;;;;26.88;51.63;99412.06;4209305;28;20256;-69
2022/06/27 01:17:38;;;;;;;2.60;1.77;;;;;;;27.18;51.65;99419.38;4209421;28;20589;-69
2022/06/27 01:19:40;;;;;;;3.15;2.10;;;;;;;27.20;51.26;99439.00;4210070;28;20579;-69
2022/06/27 01:21:48;;;;;;;1.80;1.70;;;;;;;26.38;53.24;99439.03;4210135;28;20288;-69
2022/06/27 01:23:51;;;;;;;2.35;1.80;;;;;;;26.73;52.38;99423.81;4210149;28;20235;-69
2022/06/27 01:25:54;;;;;;;2.33;1.90;;;;;;;26.69;52.25;99434.44;4209139;28;20234;-69
2022/06/27 01:27:55;;;;;;;3.65;1.90;;;;;;;26.80;51.88;99443.41;4210096;28;20714;-69
2022/06/27 01:29:57;;;;;;;2.55;1.92;;;;;;;26.21;53.57;99441.22;4209354;28;20602;-68
2022/06/27 01:32:00;;;;;;;2.40;2.00;;;;;;;27.29;51.35;99432.97;4208601;28;20299;-69
2022/06/27 01:34:02;;;;;;;2.43;2.10;;;;;;;27.04;51.82;99434.66;4208969;28;20341;-69
2022/06/27 01:38:25;;;;;;;3.20;1.77;;;;;;;26.73;52.30;99448.34;4210062;28;20287;-69
2022/06/27 01:40:27;;;;;;;2.95;2.00;;;;;;;27.30;51.20;99435.44;4208814;28;20671;-68
2022/06/27 01:42:29;;;;;;;3.33;2.33;;;;;;;27.39;50.88;99405.63;4209350;28;20218;-69
2022/06/27 01:44:33;;;;;;;3.42;2.58;;;;;;;27.84;50.23;99402.97;4209503;28;20740;-69
2022/06/27 01:46:43;;;;;;;2.63;2.22;;;;;;;27.24;51.30;99410.06;4208869;28;20308;-69
2022/06/27 01:48:45;;;;;;;2.88;2.13;;;;;;;27.09;51.94;99404.66;4208976;28;20271;-69
2022/06/27 01:50:49;;;;;;;2.58;2.08;;;;;;;27.68;50.72;99386.66;4209555;28;20276;-68
2022/06/27 01:52:54;;;;;;;2.28;2.08;;;;;;;27.16;51.27;99380.63;4208665;28;20682;-69
2022/06/27 01:54:56;;;;;;;2.15;1.95;;;;;;;27.37;51.19;99366.91;4206638;28;20299;-68
2022/06/27 01:56:57;;;;;;;4.55;2.00;;;;;;;27.07;51.53;99353.09;4209074;28;20308;-69
2022/06/27 01:58:58;;;;;;;3.25;2.42;;;;;;;27.28;50.94;99341.25;4209991;28;20226;-69
2022/06/27 02:01:01;;;;;;;2.63;2.00;;;;;;;27.32;50.85;99331.44;4208040;28;20946;-69
2022/06/27 02:03:03;;;;;;;2.50;2.00;;;;;;;27.62;49.78;99327.75;4205404;28;20226;-68
2022/06/27 02:05:06;;;;;;;8.15;2.30;;;;;;;27.76;49.85;99350.56;4209112;28;20349;-69
2022/06/27 02:07:08;;;;;;;3.85;2.50;;;;;;;27.63;50.27;99365.69;4208119;28;20379;-69
2022/06/27 02:09:12;;;;;;;2.90;2.33;;;;;;;27.69;50.23;99373.84;4209432;28;20231;-69
2022/06/27 02:11:15;;;;;;;4.07;2.33;;;;;;;27.12;51.21;99385.00;4209507;28;20714;-69
2022/06/27 02:13:16;;;;;;;4.18;2.42;;;;;;;27.52;50.41;99372.28;4207651;28;20316;-68
2022/06/27 02:15:18;;;;;;;3.20;2.38;;;;;;;27.95;49.41;99358.09;4208323;28;20288;-68
2022/06/27 02:17:22;;;;;;;3.85;2.45;;;;;;;28.04;49.08;99366.50;4208386;28;20252;-68
2022/06/27 02:19:23;;;;;;;2.97;2.63;;;;;;;28.21;48.99;99360.66;4206978;28;20280;-69
2022/06/27 02:21:29;;;;;;;3.22;2.60;;;;;;;28.02;49.25;99360.50;4208624;28;20593;-69
2022/06/27 02:23:30;;;;;;;3.20;2.63;;;;;;;26.94;51.40;99371.94;4208451;28;20312;-69
2022/06/27 02:25:33;;;;;;;4.38;2.70;;;;;;;26.82;52.34;99353.94;4208207;28;20234;-69
2022/06/27 02:27:35;;;;;;;3.78;3.00;;;;;;;27.22;51.04;99344.03;4208992;28;20231;-69
2022/06/27 02:29:38;;;;;;;2.92;2.63;;;;;;;27.08;51.56;99343.81;4209676;28;20616;-69
2022/06/27 02:31:44;;;;;;;3.08;2.50;;;;;;;27.93;49.37;99328.31;4208514;28;20329;-69
2022/06/27 02:33:48;;;;;;;3.15;2.50;;;;;;;27.78;49.58;99342.91;4207243;28;20643;-69
2022/06/27 02:35:52;;;;;;;2.63;2.42;;;;;;;26.39;52.34;99348.03;4208201;28;20226;-69
2022/06/27 02:37:56;;;;;;;6.68;2.80;;;;;;;24.63;56.35;99345.00;4207702;28;20288;-69
2022/06/27 02:39:58;;;;;;;4.55;2.80;;;;;;;23.36;59.24;99340.88;4209221;28;20230;-69
2022/06/27 02:42:01;;;;;;;5.53;2.60;;;;;;;24.77;56.77;99300.00;4209170;28;20306;-69
2022/06/27 02:44:07;;;;;;;4.30;3.40;;;;;;;26.66;52.23;99286.94;4199852;28;20745;-68
2022/06/27 02:46:09;;;;;;;3.00;2.60;;;;;;;24.61;56.35;99306.41;4207967;28;20231;-69
2022/06/27 02:48:12;;;;;;;3.10;2.80;;;;;;;26.44;52.62;99317.22;4209180;28;20235;-69
2022/06/27 02:50:14;;;;;;;3.08;2.88;;;;;;;27.13;51.22;99334.81;4201702;28;20288;-69
2022/06/27 02:52:30;;;;;;;3.88;2.70;;;;;;;26.06;52.35;99357.56;4208219;28;20226;-69
2022/06/27 02:54:53;;;;;;;4.90;3.10;;;;;;;25.78;53.25;99343.34;4208788;28;20707;-69
2022/06/27 02:57:02;;;;;;;5.85;3.30;;;;;;;23.56;58.77;99346.53;4197276;28;20284;-69
2022/06/27 02:59:09;;;;;;;5.97;3.25;;;;;;;24.58;56.36;99310.50;4208663;28;20233;-69
2022/06/27 03:01:12;;;;;;;4.38;3.05;;;;;;;23.46;59.81;99313.03;4209124;28;20238;-69
2022/06/27 03:03:16;;;;;;;5.13;3.10;;;;;;;24.31;57.65;99295.09;4206469;28;20283;-68
2022/06/27 03:05:18;;;;;;;5.63;3.23;;;;;;;25.91;53.68;99290.25;4207920;28;20291;-69
2022/06/27 03:07:20;;;;;;;3.50;3.10;;;;;;;24.84;56.15;99310.66;4208584;28;20836;-68
2022/06/27 03:09:21;;;;;;;4.97;3.30;;;;;;;25.07;55.66;99305.84;4208350;28;20618;-68
2022/06/27 03:11:26;;;;;;;4.43;3.03;;;;;;;25.46;54.44;99305.44;4209042;28;20238;-69
2022/06/27 03:13:27;;;;;;;5.47;3.33;;;;;;;26.10;52.69;99320.50;4207630;28;20230;-69
2022/06/27 03:15:29;;;;;;;5.33;3.53;;;;;;;26.13;53.03;99319.97;4206988;28;20230;-69
2022/06/27 03:17:30;;;;;;;8.87;3.37;;;;;;;26.15;52.80;99305.00;4208406;28;20227;-69
2022/06/27 03:19:32;;;;;;;4.60;3.80;;;;;;;26.81;51.22;99286.06;4208190;28;20222;-69
2022/06/27 03:21:34;;;;;;;5.00;4.07;;;;;;;27.25;50.38;99290.81;4207001;28;20725;-69
2022/06/27 03:23:35;;;;;;;6.93;4.40;;;;;;;26.30;52.41;99319.66;4208625;28;20238;-68
2022/06/27 03:25:37;;;;;;;4.17;3.30;;;;;;;25.51;53.82;99335.38;4207095;28;20644;-69
2022/06/27 03:27:39;;;;;;;4.00;3.33;;;;;;;24.93;55.33;99325.38;4208200;28;20242;-69
2022/06/27 03:29:41;;;;;;;5.07;3.70;;;;;;;26.03;53.20;99325.41;4208811;28;20321;-69
2022/06/27 03:31:44;;;;;;;4.63;3.50;;;;;;;26.18;52.09;99332.78;4209168;28;20230;-69
2022/06/27 03:33:46;;;;;;;5.07;3.77;;;;;;;26.79;51.39;99343.63;4206965;28;20291;-68
2022/06/27 03:35:48;;;;;;;4.97;3.40;;;;;;;26.95;50.75;99349.03;4206884;28;20273;-69
2022/06/27 03:37:50;;;;;;;8.70;3.80;;;;;;;26.89;50.91;99338.13;4208133;28;20284;-68
2022/06/27 03:39:52;;;;;;;5.57;4.17;;;;;;;26.93;50.90;99327.47;4207514;28;20697;-69
2022/06/27 03:41:53;;;;;;;4.43;3.40;;;;;;;26.83;51.15;99343.88;4207349;28;20238;-69
2022/06/27 03:43:55;;;;;;;7.37;4.53;;;;;;;24.88;55.25;99354.44;4206748;28;20235;-69
2022/06/27 03:45:57;;;;;;;9.03;3.80;;;;;;;26.42;51.94;99352.94;4209431;28;20234;-69
2022/06/27 03:48:02;;;;;;;4.97;4.27;;;;;;;26.55;51.40;99351.56;4210265;28;20659;-69
2022/06/27 03:50:04;;;;;;;5.57;4.37;;;;;;;26.41;51.66;99367.63;4203519;28;20238;-68
2022/06/27 03:52:06;;;;;;;5.38;4.38;;;;;;;26.21;52.23;99364.94;4210421;28;20234;-68
2022/06/27 03:54:07;;;;;;;5.53;3.90;;;;;;;26.49;51.14;99363.56;4208162;28;20230;-68
2022/06/27 03:56:09;;;;;;;5.07;4.03;;;;;;;26.41;51.60;99364.91;4210472;28;20231;-69
2022/06/27 03:58:11;;;;;;;4.70;3.50;;;;;;;26.72;51.18;99337.63;4210998;28;20235;-69
2022/06/27 04:00:13;;;;;;;4.20;3.20;;;;;;;25.93;52.51;99342.53;4210817;28;20238;-68
2022/06/27 04:02:16;;;;;;;4.47;3.80;;;;;;;26.47;51.35;99336.56;4209519;28;20230;-68
2022/06/27 04:04:17;;;;;;;4.77;3.43;;;;;;;25.44;53.52;99368.31;4210184;28;20656;-68
2022/06/27 04:06:19;;;;;;;5.20;3.47;;;;;;;25.92;52.92;99368.16;4209300;28;20227;-68
2022/06/27 04:08:21;;;;;;;4.63;3.60;;;;;;;26.74;50.95;99354.53;4211740;28;20291;-68
2022/06/27 04:10:23;;;;;;;5.10;3.37;;;;;;;26.13;52.11;99347.19;4210928;28;20257;-69
2022/06/27 04:12:24;;;;;;;3.50;3.20;;;;;;;26.47;51.77;99336.56;4210391;28;20244;-69
2022/06/27 04:14:26;;;;;;;4.93;3.30;;;;;;;25.45;52.96;99360.97;4210356;28;20285;-68
2022/06/27 04:16:28;;;;;;;4.60;3.53;;;;;;;25.88;52.60;99356.97;4210835;28;20226;-69
2022/06/27 04:18:30;;;;;;;5.90;3.80;;;;;;;26.37;52.04;99368.44;4208910;28;20810;-69
2022/06/27 04:20:31;;;;;;;6.95;3.80;;;;;;;25.56;53.70;99374.34;4210942;28;20682;-69
2022/06/27 04:22:33;;;;;;;4.38;3.80;;;;;;;26.32;51.95;99369.28;4210827;28;20230;-69
2022/06/27 04:24:36;;;;;;;6.78;4.03;;;;;;;26.19;52.53;99381.56;4209117;28;20230;-69
2022/06/27 04:26:38;;;;;;;6.37;3.93;;;;;;;25.70;53.75;99409.22;4210935;28;20292;-68
2022/06/27 04:28:40;;;;;;;6.95;3.95;;;;;;;25.90;53.30;99403.03;4210455;28;20242;-68
2022/06/27 04:30:41;;;;;;;5.75;3.90;;;;;;;26.15;52.50;99388.66;4211105;28;20296;-69
2022/06/27 04:32:44;;;;;;;6.22;3.75;;;;;;;26.18;52.35;99392.72;4210493;28;20296;-68
2022/06/27 04:34:46;;;;;;;8.00;4.00;;;;;;;26.82;51.37;99383.94;4209501;28;20239;-68
2022/06/27 04:36:48;;;;;;;4.57;3.83;;;;;;;25.48;53.95;99417.59;4181609;28;20227;-68
2022/06/27 04:38:50;;;;;;;6.53;4.30;;;;;;;26.71;51.69;99404.19;4210944;28;20231;-69
2022/06/27 04:40:52;;;;;;;5.07;3.97;;;;;;;25.83;52.76;99418.78;4210342;28;20280;-68
2022/06/27 04:42:56;;;;;;;5.47;4.13;;;;;;;25.18;54.29;99414.44;4210398;28;20295;-68
2022/06/27 04:44:58;;;;;;;5.93;4.00;;;;;;;25.58;53.93;99368.63;4209661;28;20272;-68
2022/06/27 04:47:02;;;;;;;8.00;4.63;;;;;;;26.45;52.35;99354.28;4210004;28;20229;-69
2022/06/27 04:49:03;;;;;;;5.63;4.40;;;;;;;25.64;53.78;99367.53;4209752;28;20237;-69
2022/06/27 04:51:06;;;;;;;5.17;4.27;;;;;;;25.59;53.74;99381.97;4203715;28;20222;-69
2022/06/27 04:53:08;;;;;;;5.97;4.40;;;;;;;25.08;55.65;99367.34;4210085;28;20387;-68
2022/06/27 04:55:12;;;;;;;6.50;4.43;;;;;;;26.05;53.11;99362.22;4208132;28;20242;-68
2022/06/27 04:57:13;;;;;;;5.33;4.83;;;;;;;25.65;53.93;99368.38;4210877;28;20238;-68
2022/06/27 04:59:16;;;;;;;8.63;5.20;;;;;;;26.29;53.06;99372.56;4208885;28;20238;-68
2022/06/27 05:01:18;;;;;;;8.77;4.93;;;;;;;25.59;54.31;99386.59;4209894;28;20236;-68
2022/06/27 05:03:22;;;;;;;6.53;5.60;;;;;;;25.46;54.82;99390.66;4210044;28;20233;-68
2022/06/27 05:05:24;;;;;;;6.20;5.60;;;;;;;25.72;53.75;99398.88;4209031;28;20246;-68
2022/06/27 05:07:28;;;;;;;7.70;6.90;;;;;;;25.60;54.90;99407.28;4208985;28;20687;-68
2022/06/27 05:09:30;;;;;;;7.77;6.63;;;;;;;25.07;55.98;99420.06;4211438;28;20256;-69
2022/06/27 05:11:32;;;;;;;7.97;6.80;;;;;;;26.30;53.04;99415.91;4209799;28;20307;-68
2022/06/27 05:13:33;;;;;;;8.70;7.80;;;;;;;25.80;54.24;99436.50;4209606;28;20276;-68
2022/06/27 05:15:37;;;;;;;10.93;6.57;;;;;;;26.78;52.35;99412.06;4208846;28;20242;-68
2022/06/27 05:17:38;;;;;;;7.70;6.87;;;;;;;27.15;51.64;99409.00;4210177;28;20234;-69
2022/06/27 05:19:40;;;;;;;8.63;6.83;;;;;;;27.12;51.41;99430.59;4209792;28;20718;-68
2022/06/27 05:21:43;;;;;;;10.73;6.70;;;;;;;25.70;55.01;99456.31;4209662;28;20261;-69
2022/06/27 05:23:44;;;;;;;7.87;7.00;;;;;;;25.27;55.97;99469.16;4209103;28;20284;-68
2022/06/27 05:25:46;;;;;;;9.47;6.83;;;;;;;24.10;58.95;99484.22;4208913;28;20227;-68
2022/06/27 05:27:49;;;;;;;8.47;7.67;;;;;;;24.65;58.04;99460.56;4210407;28;20264;-68
2022/06/27 05:29:51;;;;;;;9.53;8.37;;;;;;;24.90;56.97;99450.97;4209673;28;20231;-69
2022/06/27 05:31:52;;;;;;;10.48;9.48;;;;;;;24.05;59.19;99451.56;4210056;28;20246;-69
2022/06/27 05:34:00;;;;;;;12.95;9.02;;;;;;;24.21;58.90;99443.59;4209209;28;20265;-69
2022/06/27 05:36:04;;;;;;;12.67;7.63;;;;;;;24.15;59.01;99453.56;4208315;28;20662;-69
2022/06/27 05:38:05;;;;;;;7.53;6.63;;;;;;;23.67;60.37;99468.78;4210295;28;20226;-70
2022/06/27 05:40:08;;;;;;;9.63;6.67;;;;;;;24.76;57.42;99453.31;4210411;28;20279;-68
2022/06/27 05:42:10;;;;;;;7.23;6.47;;;;;;;25.85;55.11;99444.66;4209578;28;20226;-69
2022/06/27 05:44:13;;;;;;;8.95;6.65;;;;;;;24.87;57.30;99462.41;4210396;28;20239;-69
2022/06/27 05:46:15;;;;;;;8.13;6.73;;;;;;;26.28;54.37;99450.75;4200638;28;20961;-69
2022/06/27 05:48:19;;;;;;;7.78;6.78;;;;;;;25.71;55.29;99459.84;4208967;28;20659;-69
2022/06/27 05:50:21;;;;;;;8.67;6.70;;;;;;;26.42;53.66;99461.97;4210195;28;20295;-69
2022/06/27 05:52:22;;;;;;;7.30;6.28;;;;;;;26.49;53.46;99476.13;4211037;28;20283;-69
2022/06/27 05:54:25;;;;;;;6.43;5.65;;;;;;;26.27;53.66;99479.13;4209088;28;20781;-69
2022/06/27 05:56:28;;;;;;;8.20;5.93;;;;;;;25.67;55.41;99486.81;4209177;28;20234;-69
2022/06/27 05:58:31;;;;;;;7.50;5.33;;;;;;;25.93;54.66;99478.72;4210142;28;20227;-69
2022/06/27 06:00:33;;;;;;;6.18;5.30;;;;;;;26.21;53.70;99480.19;4209693;28;20232;-68
2022/06/27 06:02:36;;;;;;;5.50;5.00;;;;;;;26.78;52.32;99500.16;4209312;28;20268;-69
2022/06/27 06:04:38;;;;;;;31.38;7.28;;;;;;;25.30;55.96;99512.16;4205936;28;20898;-69
2022/06/27 06:06:43;;;;;;;11.50;5.90;;;;;;;25.44;55.34;99509.81;4208527;28;20285;-68
2022/06/27 06:08:45;;;;;;;15.53;6.63;;;;;;;26.07;54.71;99501.69;4208522;28;20230;-69
2022/06/27 06:10:47;;;;;;;9.90;5.47;;;;;;;25.13;56.77;99515.06;4209116;28;20234;-69
2022/06/27 06:12:50;;;;;;;8.73;5.65;;;;;;;25.13;57.56;99500.66;4208367;28;20226;-69
2022/06/27 06:14:52;;;;;;;7.15;5.72;;;;;;;24.57;58.04;99511.88;4209142;28;20261;-69
2022/06/27 06:16:54;;;;;;;8.27;5.55;;;;;;;25.49;56.21;99490.81;4209447;28;20867;-69
2022/06/27 06:18:56;;;;;;;5.43;4.93;;;;;;;25.23;56.66;99492.53;4208813;28;20223;-69
2022/06/27 06:20:58;;;;;;;6.45;5.22;;;;;;;24.44;59.20;99496.81;4206819;28;20260;-68
2022/06/27 06:23:00;;;;;;;6.03;5.07;;;;;;;25.18;57.19;99503.41;4208995;28;20230;-69
2022/06/27 06:25:02;;;;;;;7.13;5.30;;;;;;;24.15;59.28;99521.47;4207483;28;20283;-69
2022/06/27 06:27:05;;;;;;;6.32;5.45;;;;;;;24.27;59.49;99505.88;4209256;28;20234;-69
2022/06/27 06:29:14;;;;;;;8.00;5.83;;;;;;;24.42;59.16;99507.13;4208728;28;20733;-69
2022/06/27 06:31:21;;;;;;;8.47;5.60;;;;;;;24.34;59.70;99505.66;4208532;28;20234;-68
2022/06/27 06:33:24;;;;;;;7.07;5.95;;;;;;;25.81;55.50;99508.09;4208843;28;20272;-68
2022/06/27 06:35:25;;;;;;;7.80;5.80;;;;;;;26.60;53.75;99508.88;4207011;28;20288;-68
2022/06/27 06:37:27;;;;;;;6.23;5.63;;;;;;;25.78;55.75;99523.88;4207621;28;20256;-69
2022/06/27 06:39:29;;;;;;;8.52;6.13;;;;;;;25.55;56.36;99516.97;4209157;28;20230;-69
2022/06/27 06:41:32;;;;;;;8.83;5.90;;;;;;;25.16;57.15;99524.59;4209109;28;20227;-69
2022/06/27 06:43:37;;;;;;;6.97;6.28;;;;;;;25.72;55.92;99522.22;4207881;28;20238;-69
2022/06/27 06:45:40;;;;;;;7.53;6.33;;;;;;;26.44;54.20;99530.66;4208463;28;20303;-70
2022/06/27 06:47:46;;;;;;;8.65;7.07;;;;;;;25.85;55.12;99540.00;4208582;28;20317;-69
2022/06/27 06:49:48;;;;;;;7.13;6.43;;;;;;;25.81;55.18;99546.22;4206975;28;20222;-69
2022/06/27 06:51:50;;;;;;;8.93;7.90;;;;;;;25.91;55.07;99541.66;4208188;28;20296;-69
2022/06/27 06:53:52;;;;;;;7.70;6.90;;;;;;;26.46;54.23;99531.19;4208511;28;20727;-68
2022/06/27 06:55:56;;;;;;;9.53;7.97;;;;;;;26.02;55.13;99530.84;4207305;28;20227;-69
2022/06/27 06:57:57;;;;;;;10.38;7.93;;;;;;;25.86;55.15;99530.72;4208519;28;20230;-69
2022/06/27 06:59:59;;;;;;;8.98;7.13;;;;;;;26.25;54.79;99527.63;4209343;28;20646;-69
2022/06/27 07:02:01;;;;;;;11.63;8.13;;;;;;;26.09;55.28;99524.03;4207025;28;20284;-69
2022/06/27 07:04:03;;;;;;;10.23;7.78;;;;;;;26.39;54.67;99514.28;4208067;28;21074;-68
2022/06/27 07:06:06;;;;;;;9.03;7.83;;;;;;;25.84;55.20;99513.03;4207275;28;21103;-69
2022/06/27 07:08:09;;;;;;;9.45;8.48;;;;;;;25.64;55.72;99525.44;4199999;28;20295;-69
2022/06/27 07:10:12;;;;;;;9.13;8.07;;;;;;;25.77;55.72;99524.97;4209147;28;20230;-69
2022/06/27 07:12:14;;;;;;;8.85;7.72;;;;;;;25.59;55.65;99528.16;4208558;28;20526;-69
2022/06/27 07:14:15;;;;;;;9.63;8.13;;;;;;;25.23;55.79;99530.63;4207336;28;20234;-69
2022/06/27 07:16:18;;;;;;;9.82;8.60;;;;;;;25.05;56.38;99532.69;4207849;28;20238;-68
2022/06/27 07:18:20;;;;;;;12.87;9.47;;;;;;;25.30;56.07;99536.66;4208530;28;20230;-69
2022/06/27 07:20:22;;;;;;;10.13;8.83;;;;;;;26.44;54.07;99548.94;4210519;28;20279;-69
2022/06/27 07:22:24;;;;;;;10.60;9.55;;;;;;;25.36;55.78;99565.59;4212344;28;20238;-69
2022/06/27 07:24:26;;;;;;;10.55;9.45;;;;;;;26.15;54.88;99555.66;4211886;28;20291;-68
2022/06/27 07:26:31;;;;;;;10.43;9.40;;;;;;;26.30;53.97;99570.41;4210036;28;20250;-69
2022/06/27 07:28:33;;;;;;;11.83;9.87;;;;;;;25.89;55.07;99586.56;4211541;28;20646;-69
2022/06/27 07:30:35;;;;;;;10.90;9.77;;;;;;;26.14;54.30;99583.97;4212201;28;20234;-69
2022/06/27 07:32:39;;;;;;;10.33;9.33;;;;;;;25.23;56.19;99583.16;4211153;28;20764;-70
2022/06/27 07:34:41;;;;;;;11.20;10.00;;;;;;;25.50;55.22;99573.28;4210300;28;20254;-68
2022/06/27 07:36:43;;;;;;;10.97;9.80;;;;;;;25.28;55.00;99567.94;4211076;28;20226;-69
2022/06/27 07:38:47;;;;;;;12.33;9.63;;;;;;;25.31;55.25;99543.75;4211057;28;20231;-69
2022/06/27 07:40:48;;;;;;;10.90;9.23;;;;;;;24.72;56.02;99563.66;4211906;28;20233;-68
2022/06/27 07:42:52;;;;;;;10.60;9.60;;;;;;;25.32;55.27;99563.63;4211163;28;20266;-68
2022/06/27 07:44:56;;;;;;;10.73;9.67;;;;;;;25.34;55.17;99558.72;4210559;28;20230;-68
2022/06/27 07:46:57;;;;;;;11.17;10.17;;;;;;;25.62;54.75;99563.00;4211072;28;20657;-68
2022/06/27 07:49:00;;;;;;;10.87;9.83;;;;;;;26.18;53.90;99561.66;4211427;28;20266;-68
2022/06/27 07:51:01;;;;;;;11.50;10.30;;;;;;;25.94;54.67;99557.47;4209775;28;20253;-68
2022/06/27 07:53:12;;;;;;;12.97;10.13;;;;;;;26.56;53.40;99563.16;4211389;28;20767;-68
2022/06/27 07:55:14;;;;;;;11.40;10.20;;;;;;;26.64;52.68;99580.88;4210279;28;20234;-68
2022/06/27 07:57:17;;;;;;;11.27;10.15;;;;;;;25.53;54.71;99583.66;4210627;28;20706;-68
2022/06/27 07:59:19;;;;;;;10.70;9.65;;;;;;;25.76;54.92;99585.13;4211652;28;20237;-68
2022/06/27 08:01:21;;;;;;;12.27;11.07;;;;;;;24.38;57.71;99588.31;4210477;28;20257;-68
2022/06/27 08:03:39;;;;;;;12.17;10.97;;;;;;;25.92;54.80;99575.16;4210209;28;20956;-68
2022/06/27 08:05:42;;;;;;;11.65;10.15;;;;;;;26.01;54.43;99567.31;4210061;28;20230;-68
2022/06/27 08:07:43;;;;;;;12.88;10.82;;;;;;;25.83;55.01;99580.28;4211358;28;20243;-68
2022/06/27 08:09:45;;;;;;;12.23;10.63;;;;;;;25.73;54.91;99585.69;4211056;28;20694;-68
2022/06/27 08:11:47;;;;;;;12.48;10.40;;;;;;;25.79;54.61;99588.16;4210894;28;20279;-68
2022/06/27 08:13:52;;;;;;;16.55;11.73;;;;;;;26.04;54.36;99594.03;4210039;28;20238;-68
2022/06/27 08:15:55;;;;;;;13.02;11.23;;;;;;;25.71;54.72;99605.00;4209501;28;20234;-68
2022/06/27 08:17:57;;;;;;;12.20;10.68;;;;;;;26.35;53.99;99605.84;4210843;28;20227;-69
2022/06/27 08:19:59;;;;;;;14.30;10.63;;;;;;;26.29;53.65;99610.47;4210335;28;20230;-68
2022/06/27 08:22:02;;;;;;;11.02;9.93;;;;;;;25.97;54.22;99616.88;4210032;28;20278;-69
2022/06/27 08:24:07;;;;;;;12.50;10.13;;;;;;;26.39;53.70;99596.06;4210280;28;20958;-68
2022/06/27 08:26:09;;;;;;;11.68;9.90;;;;;;;25.69;54.23;99604.44;4209981;28;20230;-68
2022/06/27 08:28:13;;;;;;;10.67;9.57;;;;;;;25.84;54.45;99619.22;4210418;28;20222;-69
2022/06/27 08:30:15;;;;;;;9.85;8.85;;;;;;;25.18;55.77;99653.03;4210271;28;20356;-68
2022/06/27 08:32:17;;;;;;;10.27;9.27;;;;;;;25.51;54.91;99651.97;4210988;28;20272;-68
2022/06/27 08:34:21;;;;;;;12.10;10.00;;;;;;;25.52;54.16;99631.00;4209362;28;20272;-68
2022/06/27 08:36:23;;;;;;;11.70;9.68;;;;;;;25.90;53.87;99615.47;4209819;28;20304;-68
2022/06/27 08:38:25;;;;;;;11.23;10.02;;;;;;;25.88;54.29;99614.88;4209627;28;20599;-68
2022/06/27 08:40:27;;;;;;;13.73;10.85;;;;;;;26.56;53.04;99590.41;4210486;28;20238;-68
2022/06/27 08:42:29;;;;;;;10.98;9.55;;;;;;;26.86;51.88;99600.53;4211031;28;20230;-69
2022/06/27 08:44:31;;;;;;;10.60;9.07;;;;;;;25.97;54.69;99605.16;4209870;28;20738;-69
2022/06/27 08:46:34;;;;;;;11.02;9.82;;;;;;;26.40;53.62;99597.69;4192479;28;20869;-68
2022/06/27 08:48:37;;;;;;;12.00;10.00;;;;;;;26.18;53.79;99621.59;4208059;28;20226;-68
2022/06/27 08:50:39;;;;;;;11.35;9.68;;;;;;;25.99;53.50;99632.97;4206560;28;20230;-68
2022/06/27 08:52:45;;;;;;;10.75;9.65;;;;;;;26.19;53.64;99624.06;4209452;28;20231;-68
2022/06/27 08:54:47;;;;;;;12.18;9.52;;;;;;;25.72;54.97;99639.31;4210136;28;20971;-68
2022/06/27 08:56:50;;;;;;;11.05;9.25;;;;;;;25.87;54.29;99652.19;4210013;28;20230;-68
2022/06/27 08:58:55;;;;;;;11.75;10.27;;;;;;;26.19;53.10;99653.22;4209479;28;20351;-68
2022/06/27 09:00:57;;;;;;;10.98;9.65;;;;;;;25.30;55.52;99674.63;4210539;28;20971;-68
2022/06/27 09:02:59;;;;;;;10.60;9.50;;;;;;;25.89;53.37;99687.34;4209457;28;20285;-68
2022/06/27 09:05:03;;;;;;;11.88;8.90;;;;;;;25.21;54.99;99696.06;4209081;28;20292;-68
2022/06/27 09:07:04;;;;;;;10.80;9.40;;;;;;;25.55;54.34;99665.88;4210385;28;20258;-69
2022/06/27 09:09:08;;;;;;;11.82;10.45;;;;;;;26.50;52.78;99648.69;4207963;28;20234;-69
2022/06/27 09:11:11;;;;;;;11.10;10.00;;;;;;;25.88;53.78;99659.31;4210600;28;20685;-69
2022/06/27 09:13:15;;;;;;;10.50;9.40;;;;;;;26.47;53.71;99660.13;4208195;28;20235;-68
2022/06/27 09:15:17;;;;;;;11.88;9.65;;;;;;;26.06;54.31;99677.13;4208811;28;21019;-68
2022/06/27 09:17:19;;;;;;;10.50;9.40;;;;;;;26.23;53.92;99646.16;4209990;28;20888;-69
2022/06/27 09:19:44;;;;;;;10.73;9.48;;;;;;;26.60;53.52;99648.75;4210338;28;20288;-68
2022/06/27 09:22:16;;;;;;;9.85;8.85;;;;;;;26.16;54.63;99665.47;4208818;28;20242;-69
2022/06/27 09:24:17;;;;;;;11.70;10.38;;;;;;;26.77;53.02;99662.16;4202555;28;20284;-68
2022/06/27 09:26:21;;;;;;;10.85;9.80;;;;;;;25.65;55.37;99671.41;4209512;28;20222;-69
2022/06/27 09:28:37;;;;;;;11.80;10.60;;;;;;;26.42;54.20;99666.41;4208595;28;20288;-68
2022/06/27 09:30:40;;;;;;;11.30;10.10;;;;;;;26.33;54.11;99685.16;4210321;28;20658;-69
2022/06/27 09:32:42;;;;;;;13.57;10.63;;;;;;;27.01;52.96;99662.50;4209862;28;20252;-68
2022/06/27 09:34:44;;;;;;;14.20;12.05;;;;;;;26.51;53.95;99669.47;4207943;28;20330;-68
2022/06/27 09:36:54;;;;;;;11.85;10.68;;;;;;;26.19;54.01;99688.66;4209628;28;20231;-69
2022/06/27 09:38:56;;;;;;;10.38;9.38;;;;;;;26.52;53.69;99681.97;4208120;28;20302;-69